sensor_id;sensor_type;location;lat;lon;timestamp;pressure;altitude;pressure_sealevel;temperature;humidity
63808;BME280;49961;43.970;22.868;2022-09-17T00:00:37;100359.94;;;20.22;100.00
63808;BME280;49961;43.970;22.868;2022-09-17T00:01:38;100368.91;;;20.20;100.00
63808;BME280;49961;43.970;22.868;2022-09-17T00:02:38;100373.75;;;20.20;100.00
63808;BME280;49961;43.970;22.868;2022-09-17T00:03:39;100374.75;;;20.17;100.00
63808;BME280;49961;43.970;22.868;2022-09-17T00:04:39;100371.66;;;20.15;100.00
63808;BME280;49961;43.970;22.868;2022-09-17T00:05:40;100357.09;;;20.11;100.00
63808;BME280;49961;43.970;22.868;2022-09-17T00:06:40;100364.78;;;20.16;100.00
63808;BME280;49961;43.970;22.868;2022-09-17T00:07:41;100368.59;;;20.13;100.00
63808;BME280;49961;43.970;22.868;2022-09-17T00:08:41;100367.06;;;20.12;100.00
63808;BME280;49961;43.970;22.868;2022-09-17T00:09:41;100274.66;;;19.52;100.00
63808;BME280;49961;43.970;22.868;2022-09-17T00:10:43;100358.88;;;20.14;100.00
63808;BME280;49961;43.970;22.868;2022-09-17T00:11:44;100357.59;;;20.15;100.00
63808;BME280;49961;43.970;22.868;2022-09-17T00:12:45;100347.88;;;20.10;100.00
63808;BME280;49961;43.970;22.868;2022-09-17T00:13:46;100350.47;;;20.19;100.00
63808;BME280;49961;43.970;22.868;2022-09-17T00:14:47;100349.69;;;20.19;100.00
63808;BME280;49961;43.970;22.868;2022-09-17T00:15:47;100328.97;;;20.11;100.00
63808;BME280;49961;43.970;22.868;2022-09-17T00:16:48;100359.91;;;20.16;100.00
63808;BME280;49961;43.970;22.868;2022-09-17T00:17:53;100206.69;;;19.11;100.00
63808;BME280;49961;43.970;22.868;2022-09-17T00:18:55;100340.63;;;19.98;100.00
63808;BME280;49961;43.970;22.868;2022-09-17T00:19:55;100354.69;;;20.04;100.00
63808;BME280;49961;43.970;22.868;2022-09-17T00:20:56;100345.50;;;20.03;100.00
63808;BME280;49961;43.970;22.868;2022-09-17T00:21:56;100343.44;;;20.04;100.00
63808;BME280;49961;43.970;22.868;2022-09-17T00:22:57;100338.34;;;20.02;100.00
63808;BME280;49961;43.970;22.868;2022-09-17T00:24:00;100335.75;;;19.93;100.00
63808;BME280;49961;43.970;22.868;2022-09-17T00:25:01;100333.44;;;19.92;100.00
63808;BME280;49961;43.970;22.868;2022-09-17T00:26:04;100339.06;;;19.92;100.00
63808;BME280;49961;43.970;22.868;2022-09-17T00:27:05;100340.59;;;19.93;100.00
63808;BME280;49961;43.970;22.868;2022-09-17T00:28:06;100322.38;;;19.83;100.00
63808;BME280;49961;43.970;22.868;2022-09-17T00:29:07;100259.47;;;19.33;100.00
63808;BME280;49961;43.970;22.868;2022-09-17T00:30:09;100331.06;;;19.79;100.00
63808;BME280;49961;43.970;22.868;2022-09-17T00:31:10;100345.38;;;19.81;100.00
63808;BME280;49961;43.970;22.868;2022-09-17T00:32:10;100338.75;;;19.84;100.00
63808;BME280;49961;43.970;22.868;2022-09-17T00:33:12;100266.41;;;19.43;100.00
63808;BME280;49961;43.970;22.868;2022-09-17T00:34:13;100323.16;;;19.83;100.00
63808;BME280;49961;43.970;22.868;2022-09-17T00:35:14;100324.44;;;19.82;100.00
63808;BME280;49961;43.970;22.868;2022-09-17T00:36:14;100328.78;;;19.83;100.00
63808;BME280;49961;43.970;22.868;2022-09-17T00:37:15;100323.91;;;19.84;100.00
63808;BME280;49961;43.970;22.868;2022-09-17T00:38:15;100319.56;;;19.83;100.00
63808;BME280;49961;43.970;22.868;2022-09-17T00:39:16;100319.56;;;19.77;100.00
63808;BME280;49961;43.970;22.868;2022-09-17T00:40:17;100318.03;;;19.82;100.00
63808;BME280;49961;43.970;22.868;2022-09-17T00:41:19;100322.88;;;19.81;100.00
63808;BME280;49961;43.970;22.868;2022-09-17T00:42:21;100296.69;;;19.59;100.00
63808;BME280;49961;43.970;22.868;2022-09-17T00:43:57;100319.25;;;19.75;100.00
63808;BME280;49961;43.970;22.868;2022-09-17T00:44:58;100325.63;;;19.70;100.00
63808;BME280;49961;43.970;22.868;2022-09-17T00:46:00;100328.91;;;19.63;100.00
63808;BME280;49961;43.970;22.868;2022-09-17T00:47:01;100327.38;;;19.62;100.00
63808;BME280;49961;43.970;22.868;2022-09-17T00:48:04;100324.03;;;19.64;100.00
63808;BME280;49961;43.970;22.868;2022-09-17T00:49:11;100308.94;;;19.56;100.00
63808;BME280;49961;43.970;22.868;2022-09-17T00:50:26;100318.72;;;19.66;100.00
63808;BME280;49961;43.970;22.868;2022-09-17T00:51:36;100274.03;;;19.31;100.00
63808;BME280;49961;43.970;22.868;2022-09-17T00:52:41;100318.94;;;19.62;100.00
63808;BME280;49961;43.970;22.868;2022-09-17T00:53:43;100314.59;;;19.61;100.00
63808;BME280;49961;43.970;22.868;2022-09-17T00:54:47;100229.34;;;19.02;100.00
63808;BME280;49961;43.970;22.868;2022-09-17T00:55:58;100320.22;;;19.61;100.00
63808;BME280;49961;43.970;22.868;2022-09-17T00:57:00;100322.25;;;19.61;100.00
63808;BME280;49961;43.970;22.868;2022-09-17T00:58:04;100303.78;;;19.49;100.00
63808;BME280;49961;43.970;22.868;2022-09-17T00:59:06;100335.53;;;19.60;100.00
63808;BME280;49961;43.970;22.868;2022-09-17T01:00:07;100315.03;;;19.49;100.00
63808;BME280;49961;43.970;22.868;2022-09-17T01:01:08;100325.78;;;19.56;100.00
63808;BME280;49961;43.970;22.868;2022-09-17T01:02:09;100318.59;;;19.49;100.00
63808;BME280;49961;43.970;22.868;2022-09-17T01:03:10;100334.47;;;19.52;100.00
63808;BME280;49961;43.970;22.868;2022-09-17T01:04:17;100322.94;;;19.50;100.00
63808;BME280;49961;43.970;22.868;2022-09-17T01:16:10;100323.63;;;19.40;100.00
63808;BME280;49961;43.970;22.868;2022-09-17T01:18:40;100327.72;;;19.39;100.00
63808;BME280;49961;43.970;22.868;2022-09-17T01:25:56;100331.56;;;19.41;100.00
63808;BME280;49961;43.970;22.868;2022-09-17T01:29:00;100329.91;;;19.24;100.00
63808;BME280;49961;43.970;22.868;2022-09-17T01:30:32;100333.75;;;19.26;100.00
63808;BME280;49961;43.970;22.868;2022-09-17T01:34:24;100333.84;;;19.37;100.00
63808;BME280;49961;43.970;22.868;2022-09-17T01:40:29;100314.25;;;19.48;100.00
63808;BME280;49961;43.970;22.868;2022-09-17T01:41:57;100303.47;;;19.41;100.00
63808;BME280;49961;43.970;22.868;2022-09-17T01:43:21;100292.72;;;19.40;100.00
63808;BME280;49961;43.970;22.868;2022-09-17T01:45:36;100301.66;;;19.38;100.00
63808;BME280;49961;43.970;22.868;2022-09-17T01:46:52;100286.81;;;19.38;100.00
63808;BME280;49961;43.970;22.868;2022-09-17T01:47:57;100286.31;;;19.39;100.00
63808;BME280;49961;43.970;22.868;2022-09-17T01:49:01;100280.72;;;19.39;100.00
63808;BME280;49961;43.970;22.868;2022-09-17T01:50:08;100278.69;;;19.40;100.00
63808;BME280;49961;43.970;22.868;2022-09-17T01:51:14;100274.84;;;19.43;100.00
63808;BME280;49961;43.970;22.868;2022-09-17T01:52:18;100271.28;;;19.42;100.00
63808;BME280;49961;43.970;22.868;2022-09-17T01:53:21;100270.28;;;19.45;100.00
63808;BME280;49961;43.970;22.868;2022-09-17T01:54:44;100273.06;;;19.45;100.00
63808;BME280;49961;43.970;22.868;2022-09-17T01:55:50;100271.31;;;19.48;100.00
63808;BME280;49961;43.970;22.868;2022-09-17T01:57:00;100256.69;;;19.38;100.00
63808;BME280;49961;43.970;22.868;2022-09-17T01:58:14;100253.19;;;19.49;100.00
63808;BME280;49961;43.970;22.868;2022-09-17T01:59:30;100256.22;;;19.45;100.00
63808;BME280;49961;43.970;22.868;2022-09-17T02:00:34;100243.19;;;19.42;100.00
63808;BME280;49961;43.970;22.868;2022-09-17T02:01:36;100244.97;;;19.40;100.00
63808;BME280;49961;43.970;22.868;2022-09-17T02:03:53;100218.56;;;19.26;100.00
63808;BME280;49961;43.970;22.868;2022-09-17T02:05:10;100238.31;;;19.37;100.00
63808;BME280;49961;43.970;22.868;2022-09-17T02:06:19;100233.44;;;19.38;100.00
63808;BME280;49961;43.970;22.868;2022-09-17T02:07:22;100237.53;;;19.37;100.00
63808;BME280;49961;43.970;22.868;2022-09-17T02:08:29;100241.13;;;19.37;100.00
63808;BME280;49961;43.970;22.868;2022-09-17T02:09:42;100240.63;;;19.39;100.00
63808;BME280;49961;43.970;22.868;2022-09-17T02:10:54;100240.09;;;19.40;100.00
63808;BME280;49961;43.970;22.868;2022-09-17T02:11:59;100224.25;;;19.37;100.00
63808;BME280;49961;43.970;22.868;2022-09-17T02:13:27;100226.28;;;19.37;100.00
63808;BME280;49961;43.970;22.868;2022-09-17T02:14:41;100213.22;;;19.28;100.00
63808;BME280;49961;43.970;22.868;2022-09-17T02:15:58;100225.28;;;19.40;100.00
63808;BME280;49961;43.970;22.868;2022-09-17T02:17:15;100233.72;;;19.40;100.00
63808;BME280;49961;43.970;22.868;2022-09-17T02:20:01;100217.91;;;19.42;100.00
63808;BME280;49961;43.970;22.868;2022-09-17T02:21:09;100216.38;;;19.41;100.00
63808;BME280;49961;43.970;22.868;2022-09-17T02:22:36;100215.59;;;19.41;100.00
63808;BME280;49961;43.970;22.868;2022-09-17T02:23:44;100197.88;;;19.24;100.00
63808;BME280;49961;43.970;22.868;2022-09-17T02:26:15;100123.25;;;18.75;100.00
63808;BME280;49961;43.970;22.868;2022-09-17T02:27:23;100120.44;;;18.75;100.00
63808;BME280;49961;43.970;22.868;2022-09-17T02:29:35;100206.31;;;19.29;100.00
63808;BME280;49961;43.970;22.868;2022-09-17T02:30:37;100200.94;;;19.26;100.00
63808;BME280;49961;43.970;22.868;2022-09-17T02:31:37;100201.44;;;19.24;100.00
63808;BME280;49961;43.970;22.868;2022-09-17T02:32:40;100198.91;;;19.26;100.00
63808;BME280;49961;43.970;22.868;2022-09-17T02:33:45;100204.53;;;19.26;100.00
63808;BME280;49961;43.970;22.868;2022-09-17T02:34:46;100204.78;;;19.28;100.00
63808;BME280;49961;43.970;22.868;2022-09-17T02:35:47;100205.50;;;19.23;100.00
63808;BME280;49961;43.970;22.868;2022-09-17T02:36:47;100209.13;;;19.29;100.00
63808;BME280;49961;43.970;22.868;2022-09-17T02:37:48;100201.97;;;19.28;100.00
63808;BME280;49961;43.970;22.868;2022-09-17T02:38:57;100195.56;;;19.28;100.00
63808;BME280;49961;43.970;22.868;2022-09-17T02:39:57;100199.16;;;19.28;100.00
63808;BME280;49961;43.970;22.868;2022-09-17T02:41:19;100193.28;;;19.26;100.00
63808;BME280;49961;43.970;22.868;2022-09-17T02:43:42;100179.50;;;19.28;100.00
63808;BME280;49961;43.970;22.868;2022-09-17T02:48:00;100166.91;;;19.18;100.00
63808;BME280;49961;43.970;22.868;2022-09-17T02:49:41;100162.72;;;19.03;100.00
63808;BME280;49961;43.970;22.868;2022-09-17T02:50:53;100158.66;;;19.04;100.00
63808;BME280;49961;43.970;22.868;2022-09-17T02:53:38;100145.34;;;19.04;100.00
63808;BME280;49961;43.970;22.868;2022-09-17T02:56:42;100143.81;;;18.98;100.00
63808;BME280;49961;43.970;22.868;2022-09-17T02:57:56;100080.53;;;18.66;100.00
63808;BME280;49961;43.970;22.868;2022-09-17T02:59:20;100003.69;;;18.16;100.00
63808;BME280;49961;43.970;22.868;2022-09-17T03:00:24;100133.09;;;19.02;100.00
63808;BME280;49961;43.970;22.868;2022-09-17T03:01:33;100114.16;;;18.91;100.00
63808;BME280;49961;43.970;22.868;2022-09-17T03:02:49;100127.47;;;19.02;100.00
63808;BME280;49961;43.970;22.868;2022-09-17T03:03:53;100131.31;;;18.99;100.00
63808;BME280;49961;43.970;22.868;2022-09-17T03:04:56;100140.53;;;19.05;100.00
63808;BME280;49961;43.970;22.868;2022-09-17T03:05:57;100135.94;;;19.07;100.00
63808;BME280;49961;43.970;22.868;2022-09-17T03:06:59;100104.94;;;18.85;100.00
63808;BME280;49961;43.970;22.868;2022-09-17T03:08:07;100133.38;;;19.04;100.00
63808;BME280;49961;43.970;22.868;2022-09-17T03:09:09;100026.41;;;18.23;100.00
63808;BME280;49961;43.970;22.868;2022-09-17T03:10:09;100143.81;;;19.03;100.00
63808;BME280;49961;43.970;22.868;2022-09-17T03:11:10;100147.41;;;19.04;100.00
63808;BME280;49961;43.970;22.868;2022-09-17T03:12:12;100144.59;;;19.04;100.00
63808;BME280;49961;43.970;22.868;2022-09-17T03:13:13;100145.63;;;19.06;100.00
63808;BME280;49961;43.970;22.868;2022-09-17T03:14:14;100137.94;;;19.01;100.00
63808;BME280;49961;43.970;22.868;2022-09-17T03:15:14;100135.03;;;18.85;100.00
63808;BME280;49961;43.970;22.868;2022-09-17T03:16:15;100116.28;;;18.65;100.00
63808;BME280;49961;43.970;22.868;2022-09-17T03:17:15;100150.09;;;18.87;100.00
63808;BME280;49961;43.970;22.868;2022-09-17T03:18:16;100151.16;;;18.90;100.00
63808;BME280;49961;43.970;22.868;2022-09-17T03:19:16;100137.59;;;18.88;100.00
63808;BME280;49961;43.970;22.868;2022-09-17T03:20:17;100126.59;;;18.85;100.00
63808;BME280;49961;43.970;22.868;2022-09-17T03:21:18;100118.38;;;18.76;100.00
63808;BME280;49961;43.970;22.868;2022-09-17T03:22:18;100112.19;;;18.66;100.00
63808;BME280;49961;43.970;22.868;2022-09-17T03:23:19;100119.09;;;18.65;100.00
63808;BME280;49961;43.970;22.868;2022-09-17T03:24:19;100129.28;;;18.68;100.00
63808;BME280;49961;43.970;22.868;2022-09-17T03:25:20;100131.84;;;18.66;100.00
63808;BME280;49961;43.970;22.868;2022-09-17T03:26:20;100123.16;;;18.64;100.00
63808;BME280;49961;43.970;22.868;2022-09-17T03:27:21;100120.56;;;18.61;100.00
63808;BME280;49961;43.970;22.868;2022-09-17T03:28:21;100127.22;;;18.63;100.00
63808;BME280;49961;43.970;22.868;2022-09-17T03:29:22;100123.16;;;18.64;100.00
63808;BME280;49961;43.970;22.868;2022-09-17T03:30:22;100139.44;;;18.60;100.00
63808;BME280;49961;43.970;22.868;2022-09-17T03:31:23;100137.13;;;18.59;100.00
63808;BME280;49961;43.970;22.868;2022-09-17T03:32:23;100142.75;;;18.59;100.00
63808;BME280;49961;43.970;22.868;2022-09-17T03:33:24;100135.13;;;18.59;100.00
63808;BME280;49961;43.970;22.868;2022-09-17T03:34:24;100135.38;;;18.61;100.00
63808;BME280;49961;43.970;22.868;2022-09-17T03:35:25;100138.19;;;18.61;100.00
63808;BME280;49961;43.970;22.868;2022-09-17T03:36:25;100133.06;;;18.60;100.00
63808;BME280;49961;43.970;22.868;2022-09-17T03:37:26;100126.69;;;18.59;100.00
63808;BME280;49961;43.970;22.868;2022-09-17T03:38:26;100125.66;;;18.57;100.00
63808;BME280;49961;43.970;22.868;2022-09-17T03:39:28;100062.72;;;18.07;100.00
63808;BME280;49961;43.970;22.868;2022-09-17T03:40:28;100130.75;;;18.58;100.00
63808;BME280;49961;43.970;22.868;2022-09-17T03:41:29;100131.53;;;18.59;100.00
63808;BME280;49961;43.970;22.868;2022-09-17T03:42:29;100135.88;;;18.60;100.00
63808;BME280;49961;43.970;22.868;2022-09-17T03:43:30;100143.53;;;18.59;100.00
63808;BME280;49961;43.970;22.868;2022-09-17T03:44:30;100135.31;;;18.56;100.00
63808;BME280;49961;43.970;22.868;2022-09-17T03:45:31;100147.59;;;18.58;100.00
63808;BME280;49961;43.970;22.868;2022-09-17T03:46:31;100145.06;;;18.60;100.00
63808;BME280;49961;43.970;22.868;2022-09-17T03:47:32;100148.13;;;18.62;100.00
63808;BME280;49961;43.970;22.868;2022-09-17T03:48:32;100133.59;;;18.64;100.00
63808;BME280;49961;43.970;22.868;2022-09-17T03:49:36;100141.03;;;18.67;100.00
63808;BME280;49961;43.970;22.868;2022-09-17T03:50:36;100143.78;;;18.61;100.00
63808;BME280;49961;43.970;22.868;2022-09-17T03:51:37;100067.84;;;18.08;100.00
63808;BME280;49961;43.970;22.868;2022-09-17T03:52:37;100137.63;;;18.57;100.00
63808;BME280;49961;43.970;22.868;2022-09-17T03:53:37;100076.59;;;18.16;100.00
63808;BME280;49961;43.970;22.868;2022-09-17T03:54:38;100133.75;;;18.49;100.00
63808;BME280;49961;43.970;22.868;2022-09-17T03:55:39;100125.34;;;18.49;100.00
63808;BME280;49961;43.970;22.868;2022-09-17T03:56:39;100132.25;;;18.54;100.00
63808;BME280;49961;43.970;22.868;2022-09-17T03:57:40;100119.25;;;18.56;100.00
63808;BME280;49961;43.970;22.868;2022-09-17T03:58:40;100124.88;;;18.56;100.00
63808;BME280;49961;43.970;22.868;2022-09-17T03:59:41;100130.50;;;18.56;100.00
63808;BME280;49961;43.970;22.868;2022-09-17T04:00:41;100122.84;;;18.57;100.00
63808;BME280;49961;43.970;22.868;2022-09-17T04:01:42;100119.03;;;18.60;100.00
63808;BME280;49961;43.970;22.868;2022-09-17T04:02:42;100120.56;;;18.61;100.00
63808;BME280;49961;43.970;22.868;2022-09-17T04:03:43;100117.50;;;18.59;100.00
63808;BME280;49961;43.970;22.868;2022-09-17T04:04:45;100115.97;;;18.58;100.00
63808;BME280;49961;43.970;22.868;2022-09-17T04:05:45;100122.06;;;18.56;100.00
63808;BME280;49961;43.970;22.868;2022-09-17T04:06:46;100117.19;;;18.51;100.00
63808;BME280;49961;43.970;22.868;2022-09-17T04:07:46;100126.63;;;18.54;100.00
63808;BME280;49961;43.970;22.868;2022-09-17T04:08:47;100099.38;;;18.28;100.00
63808;BME280;49961;43.970;22.868;2022-09-17T04:09:47;100133.47;;;18.47;100.00
63808;BME280;49961;43.970;22.868;2022-09-17T04:10:48;100091.13;;;18.19;100.00
63808;BME280;49961;43.970;22.868;2022-09-17T04:11:48;100126.09;;;18.50;100.00
63808;BME280;49961;43.970;22.868;2022-09-17T04:12:49;100131.22;;;18.51;100.00
63808;BME280;49961;43.970;22.868;2022-09-17T04:13:49;100135.84;;;18.54;100.00
63808;BME280;49961;43.970;22.868;2022-09-17T04:14:49;100121.81;;;18.54;100.00
63808;BME280;49961;43.970;22.868;2022-09-17T04:15:50;100124.38;;;18.58;100.00
63808;BME280;49961;43.970;22.868;2022-09-17T04:16:51;100115.97;;;18.58;100.00
63808;BME280;49961;43.970;22.868;2022-09-17T04:17:54;100056.91;;;18.10;100.00
63808;BME280;49961;43.970;22.868;2022-09-17T04:18:56;100038.97;;;18.02;100.00
63808;BME280;49961;43.970;22.868;2022-09-17T04:19:57;100124.63;;;18.54;100.00
63808;BME280;49961;43.970;22.868;2022-09-17T04:20:57;100130.97;;;18.55;100.00
63808;BME280;49961;43.970;22.868;2022-09-17T04:21:58;100075.56;;;18.18;100.00
63808;BME280;49961;43.970;22.868;2022-09-17T04:22:59;100143.53;;;18.59;100.00
63808;BME280;49961;43.970;22.868;2022-09-17T04:24:00;100021.31;;;17.91;100.00
63808;BME280;49961;43.970;22.868;2022-09-17T04:25:01;100130.25;;;18.60;100.00
63808;BME280;49961;43.970;22.868;2022-09-17T04:26:01;100118.31;;;18.65;100.00
63808;BME280;49961;43.970;22.868;2022-09-17T04:27:02;100131.59;;;18.64;100.00
63808;BME280;49961;43.970;22.868;2022-09-17T04:28:02;100111.09;;;18.53;100.00
63808;BME280;49961;43.970;22.868;2022-09-17T04:29:03;100112.38;;;18.57;100.00
63808;BME280;49961;43.970;22.868;2022-09-17T04:30:03;100130.03;;;18.63;100.00
63808;BME280;49961;43.970;22.868;2022-09-17T04:31:04;100126.72;;;18.65;100.00
63808;BME280;49961;43.970;22.868;2022-09-17T04:32:05;100120.56;;;18.61;100.00
63808;BME280;49961;43.970;22.868;2022-09-17T04:33:05;100120.06;;;18.62;100.00
63808;BME280;49961;43.970;22.868;2022-09-17T04:34:06;100071.56;;;18.25;100.00
63808;BME280;49961;43.970;22.868;2022-09-17T04:35:06;100129.75;;;18.61;100.00
63808;BME280;49961;43.970;22.868;2022-09-17T04:36:07;100142.09;;;18.69;100.00
63808;BME280;49961;43.970;22.868;2022-09-17T04:37:08;100133.88;;;18.66;100.00
63808;BME280;49961;43.970;22.868;2022-09-17T04:38:08;100138.03;;;18.76;100.00
63808;BME280;49961;43.970;22.868;2022-09-17T04:39:09;100138.22;;;18.67;100.00
63808;BME280;49961;43.970;22.868;2022-09-17T04:40:09;100134.09;;;18.62;100.00
63808;BME280;49961;43.970;22.868;2022-09-17T04:41:10;100132.56;;;18.61;100.00
63808;BME280;49961;43.970;22.868;2022-09-17T04:42:10;100146.09;;;18.63;100.00
63808;BME280;49961;43.970;22.868;2022-09-17T04:43:11;100145.09;;;18.66;100.00
63808;BME280;49961;43.970;22.868;2022-09-17T04:44:11;100148.19;;;18.68;100.00
63808;BME280;49961;43.970;22.868;2022-09-17T04:45:12;100137.22;;;18.70;100.00
63808;BME280;49961;43.970;22.868;2022-09-17T04:46:12;100130.81;;;18.64;100.00
63808;BME280;49961;43.970;22.868;2022-09-17T04:47:13;100135.84;;;18.54;100.00
63808;BME280;49961;43.970;22.868;2022-09-17T04:48:14;100136.50;;;18.44;100.00
63808;BME280;49961;43.970;22.868;2022-09-17T04:49:14;100148.31;;;18.53;100.00
63808;BME280;49961;43.970;22.868;2022-09-17T04:50:16;100162.63;;;18.55;100.00
63808;BME280;49961;43.970;22.868;2022-09-17T04:51:17;100176.16;;;18.57;100.00
63808;BME280;49961;43.970;22.868;2022-09-17T04:52:17;100181.97;;;18.53;100.00
63808;BME280;49961;43.970;22.868;2022-09-17T04:53:18;100116.03;;;18.12;100.00
63808;BME280;49961;43.970;22.868;2022-09-17T04:54:19;100172.97;;;18.44;100.00
63808;BME280;49961;43.970;22.868;2022-09-17T04:55:19;100186.78;;;18.47;100.00
63808;BME280;49961;43.970;22.868;2022-09-17T04:56:20;100190.28;;;18.42;100.00
63808;BME280;49961;43.970;22.868;2022-09-17T04:57:20;100197.63;;;18.34;100.00
63808;BME280;49961;43.970;22.868;2022-09-17T04:58:22;100204.97;;;18.32;100.00
63808;BME280;49961;43.970;22.868;2022-09-17T04:59:23;100197.50;;;18.23;100.00
63808;BME280;49961;43.970;22.868;2022-09-17T05:00:24;100195.59;;;18.14;100.00
63808;BME280;49961;43.970;22.868;2022-09-17T05:01:24;100195.06;;;18.11;100.00
63808;BME280;49961;43.970;22.868;2022-09-17T05:02:25;100184.06;;;18.07;100.00
63808;BME280;49961;43.970;22.868;2022-09-17T05:03:25;100118.06;;;17.61;100.00
63808;BME280;49961;43.970;22.868;2022-09-17T05:04:26;100200.38;;;18.08;100.00
63808;BME280;49961;43.970;22.868;2022-09-17T05:05:26;100195.72;;;18.00;100.00
63808;BME280;49961;43.970;22.868;2022-09-17T05:06:27;100199.47;;;17.97;100.00
63808;BME280;49961;43.970;22.868;2022-09-17T05:07:27;100195.72;;;18.00;100.00
63808;BME280;49961;43.970;22.868;2022-09-17T05:08:28;100190.09;;;18.00;100.00
63808;BME280;49961;43.970;22.868;2022-09-17T05:09:28;100192.63;;;17.98;100.00
63808;BME280;49961;43.970;22.868;2022-09-17T05:10:28;100209.84;;;18.11;100.00
63808;BME280;49961;43.970;22.868;2022-09-17T05:11:29;100218.25;;;18.11;100.00
63808;BME280;49961;43.970;22.868;2022-09-17T05:12:29;100221.84;;;18.12;100.00
63808;BME280;49961;43.970;22.868;2022-09-17T05:13:30;100233.06;;;18.12;100.00
63808;BME280;49961;43.970;22.868;2022-09-17T05:14:30;100231.78;;;18.13;100.00
63808;BME280;49961;43.970;22.868;2022-09-17T05:15:31;100228.91;;;18.07;100.00
63808;BME280;49961;43.970;22.868;2022-09-17T05:16:31;100233.81;;;18.12;100.00
63808;BME280;49961;43.970;22.868;2022-09-17T05:17:32;100221.34;;;18.13;100.00
63808;BME280;49961;43.970;22.868;2022-09-17T05:18:32;100220.56;;;18.13;100.00
63808;BME280;49961;43.970;22.868;2022-09-17T05:19:33;100216.28;;;18.17;100.00
63808;BME280;49961;43.970;22.868;2022-09-17T05:20:33;100222.94;;;18.19;100.00
63808;BME280;49961;43.970;22.868;2022-09-17T05:21:34;100224.53;;;18.26;100.00
63808;BME280;49961;43.970;22.868;2022-09-17T05:22:34;100239.91;;;18.31;100.00
63808;BME280;49961;43.970;22.868;2022-09-17T05:23:34;100243.47;;;18.31;100.00
63808;BME280;49961;43.970;22.868;2022-09-17T05:24:35;100252.19;;;18.33;100.00
63808;BME280;49961;43.970;22.868;2022-09-17T05:25:38;100254.22;;;18.33;100.00
63808;BME280;49961;43.970;22.868;2022-09-17T05:26:38;100250.16;;;18.34;100.00
63808;BME280;49961;43.970;22.868;2022-09-17T05:27:40;100267.47;;;18.32;100.00
63808;BME280;49961;43.970;22.868;2022-09-17T05:28:40;100272.78;;;18.30;100.00
63808;BME280;49961;43.970;22.868;2022-09-17T05:29:41;100271.72;;;18.27;100.00
63808;BME280;49961;43.970;22.868;2022-09-17T05:30:42;100273.50;;;18.25;100.00
63808;BME280;49961;43.970;22.868;2022-09-17T05:31:42;100282.16;;;18.27;100.00
63808;BME280;49961;43.970;22.868;2022-09-17T05:32:43;100283.44;;;18.26;100.00
63808;BME280;49961;43.970;22.868;2022-09-17T05:33:43;100194.97;;;17.60;100.00
63808;BME280;49961;43.970;22.868;2022-09-17T05:34:43;100290.53;;;18.22;100.00
63808;BME280;49961;43.970;22.868;2022-09-17T05:35:44;100292.06;;;18.23;100.00
63808;BME280;49961;43.970;22.868;2022-09-17T05:36:44;100293.03;;;18.19;100.00
63808;BME280;49961;43.970;22.868;2022-09-17T05:37:45;100294.88;;;18.23;100.00
63808;BME280;49961;43.970;22.868;2022-09-17T05:38:45;100304.06;;;18.23;100.00
63808;BME280;49961;43.970;22.868;2022-09-17T05:39:46;100309.47;;;18.27;100.00
63808;BME280;49961;43.970;22.868;2022-09-17T05:40:46;100303.44;;;18.34;100.00
63808;BME280;49961;43.970;22.868;2022-09-17T05:41:48;100302.47;;;18.37;100.00
63808;BME280;49961;43.970;22.868;2022-09-17T05:42:48;100313.00;;;18.42;100.00
63808;BME280;49961;43.970;22.868;2022-09-17T05:43:49;100306.84;;;18.43;100.00
63808;BME280;49961;43.970;22.868;2022-09-17T05:44:50;100300.75;;;18.45;100.00
63808;BME280;49961;43.970;22.868;2022-09-17T05:45:50;100301.09;;;18.52;100.00
63808;BME280;49961;43.970;22.868;2022-09-17T05:46:53;100294.28;;;18.59;100.00
63808;BME280;49961;43.970;22.868;2022-09-17T05:47:57;100289.28;;;18.68;100.00
63808;BME280;49961;43.970;22.868;2022-09-17T05:48:58;100293.97;;;18.77;100.00
63808;BME280;49961;43.970;22.868;2022-09-17T05:49:58;100292.72;;;18.83;100.00
63808;BME280;49961;43.970;22.868;2022-09-17T05:50:59;100289.22;;;18.88;100.00
63808;BME280;49961;43.970;22.868;2022-09-17T05:52:00;100302.53;;;18.93;100.00
63808;BME280;49961;43.970;22.868;2022-09-17T05:53:21;100287.72;;;18.93;100.00
63808;BME280;49961;43.970;22.868;2022-09-17T05:54:21;100295.69;;;19.00;100.00
63808;BME280;49961;43.970;22.868;2022-09-17T05:55:23;100300.59;;;19.05;100.00
63808;BME280;49961;43.970;22.868;2022-09-17T05:56:24;100310.84;;;19.08;100.00
63808;BME280;49961;43.970;22.868;2022-09-17T05:57:27;100306.78;;;19.14;100.00
63808;BME280;49961;43.970;22.868;2022-09-17T05:58:28;100306.84;;;19.20;100.00
63808;BME280;49961;43.970;22.868;2022-09-17T05:59:29;100302.56;;;19.24;100.00
63808;BME280;49961;43.970;22.868;2022-09-17T06:00:29;100310.56;;;19.31;100.00
63808;BME280;49961;43.970;22.868;2022-09-17T06:01:30;100304.19;;;19.36;100.00
63808;BME280;49961;43.970;22.868;2022-09-17T06:02:30;100302.75;;;19.46;100.00
63808;BME280;49961;43.970;22.868;2022-09-17T06:03:30;100290.25;;;19.53;100.00
63808;BME280;49961;43.970;22.868;2022-09-17T06:04:31;100295.41;;;19.60;100.00